Terminal Aerodrome Forecast
Issued by NWS

Home | Current Version | Previous Version | Graphics & Text | Print | Product List | Glossary On
Versions: 1 2 3 4 5 6 7 8 9 10 11 12 13 14 15 16 17 18
484
FTUS43 KBIS 171720
TAFMOT
TAF
KMOT 171720Z 1718/1818 17012KT P6SM FEW200
     FM172300 22009KT P6SM SCT200
     FM180100 25006KT P6SM VCTS SCT090CB SCT200
     FM180600 29006KT P6SM VCSH SCT130
     FM180800 30007KT P6SM FEW140=

USA.gov is the U.S. government's official web portal to all federal, state and local government web resources and services.